Waterbeach, United Kingdom
Current Conditions -  °F | °C
As of 2:20 PM on Sunday 21 Dec 2014 (Local Time) from EGSC Reporting Station
Broken Clouds Broken Clouds  
Wind Chill: 40°   Ceiling: 1400
Heat Index: 48°   Visibility: 6mi
Dew Point: 45°   Wind: 24mph
Humidity: 87%   Direction: 220°SW
Pressure: 30.18"   Gusts: 38mph
Location:  52.27°N, 0.19°E
Report Text: EGSC 211420Z 22021G33KT 190V250 9999 BKN014 09/07 Q1022
Loading
Personal Weather Stations






























Interactive Weather Map New forecast layout! Learn more

10-Day Weather Forecast

Advertisements
Track Severe Weather on mobile